Sunday, November 19, 2017, 2:58 AM GMT
Back to Local

CYQB, Quebec, Que

Location: , , Canada Lat: 46.8
Local Time: 2:58 AM GMT ( 2:58 GMT) Lon: -71.383
Time Zone: GMT Elev: 229 ft

Show me the last for .
Show Coded

Time T Td Feel RH Dir Speed Gust Alt SLP Vis Weather Sky Remarks
2017-11-19 02:00 30 23 16 74 70° 13 26 29.57 29.58 15 SCT064 OVC072 None
2017-11-19 01:00 30 21 17 68 70° 14 22 29.60 29.61 15 FEW050 SCT065 OVC075 None
2017-11-19 00:00 32 21 25 63 70° 8 - 29.61 29.63 15 FEW065 OVC080 None
2017-11-18 23:00 30 21 18 68 60° 9 17 29.62 29.64 15 OVC092 None
2017-11-18 22:00 28 19 20 68 60° 9 - 29.65 29.67 15 OVC087 None
2017-11-18 21:00 27 18 17 68 70° 10 - 29.64 29.66 30 BKN095 Pressure falling rapidly
2017-11-18 20:00 25 18 12 73 50° 16 - 29.65 29.67 30 BKN085 OVC100 Pressure falling rapidly
2017-11-18 19:00 25 16 20 68 90° 3 - 29.75 29.77 20 OVC120 Virga in the vinicity
2017-11-18 18:00 23 14 16 67 50° 6 - 29.76 29.77 20 OVC120 None
2017-11-18 17:00 21 14 13 73 80° 7 - 29.80 29.81 30 OVC130 None
2017-11-18 16:00 21 14 16 73 30° 3 - 29.83 29.85 30 FEW009 OVC120 Pressure falling rapidly
2017-11-18 15:00 19 12 - 73 Variable 2 - 29.88 29.90 30 FEW009 OVC130 None
2017-11-18 14:00 18 12 12 78 20° 3 - 29.90 29.92 30 SCT009 BKN120 None
2017-11-18 13:30 18 12 11 78 30° 5 - 29.92 29.94 30 BKN010 OVC090 Pressure falling rapidly
2017-11-18 13:00 18 10 - 72 - Calm - 29.95 29.97 30 SCT010 BKN090 None
2017-11-18 12:00 14 10 8 85 270° 3 - 29.95 29.97 30 FEW009 SCT240 None
2017-11-18 11:00 14 10 3 85 250° 8 - 29.95 29.97 30 FEW008 None
2017-11-18 10:00 14 10 -1 85 250° 14 - 29.94 29.96 15 FEW008 None
2017-11-18 09:00 14 10 2 85 220° 9 - 29.94 29.96 15 FEW010 None
2017-11-18 08:00 16 10 5 78 220° 8 - 29.94 29.96 15 CLR None
2017-11-18 07:00 16 10 4 78 230° 9 - 29.94 29.96 15 CLR None
2017-11-18 06:00 18 10 4 72 230° 13 - 29.94 29.96 15 CLR None
2017-11-18 05:00 19 10 14 67 250° 3 - 29.96 29.97 15 FEW015 None
2017-11-18 04:00 21 12 11 67 270° 9 - 29.96 29.97 15 FEW024 None
2017-11-18 03:00 21 12 4 67 280° 18 25 29.97 29.98 15 FEW024 Pressure falling rapidly

Support USWX by starting your Amazon purchase here.